createdAt,value
2019-05-05T00:02:06.046Z,18.30
2019-05-05T00:04:54.487Z,18.30
2019-05-05T00:07:27.325Z,18.30
2019-05-05T00:09:56.370Z,18.40
2019-05-05T00:12:44.920Z,18.40
2019-05-05T00:15:34.500Z,18.30
2019-05-05T00:18:05.431Z,18.40
2019-05-05T00:20:35.008Z,18.30
2019-05-05T00:23:05.309Z,18.40
2019-05-05T00:25:34.802Z,18.40
2019-05-05T00:28:05.051Z,18.40
2019-05-05T00:30:34.539Z,18.40
2019-05-05T00:33:05.591Z,18.30
2019-05-05T00:35:34.575Z,18.30
2019-05-05T00:38:05.035Z,18.40
2019-05-05T00:40:35.271Z,18.30
2019-05-05T00:43:05.336Z,18.40
2019-05-05T00:45:35.618Z,18.40
2019-05-05T00:48:24.493Z,18.40
2019-05-05T00:50:55.480Z,18.30
2019-05-05T00:53:25.031Z,18.30
2019-05-05T00:55:54.764Z,18.30
2019-05-05T00:58:24.734Z,18.40
2019-05-05T01:01:08.999Z,18.30
2019-05-05T01:03:38.161Z,18.40
2019-05-05T01:06:15.853Z,18.30
2019-05-05T01:08:45.147Z,18.30
2019-05-05T01:11:15.308Z,18.40
2019-05-05T01:13:45.499Z,18.30
2019-05-05T01:16:15.249Z,18.30
2019-05-05T01:18:45.044Z,18.30
2019-05-05T01:21:15.038Z,18.30
2019-05-05T01:23:45.538Z,18.30
2019-05-05T01:26:15.213Z,18.30
2019-05-05T01:28:44.765Z,18.40
2019-05-05T01:31:16.803Z,18.30
2019-05-05T01:34:00.831Z,18.40
2019-05-05T01:36:29.924Z,18.40
2019-05-05T01:39:37.492Z,18.40
2019-05-05T01:42:14.330Z,18.30
2019-05-05T01:44:44.765Z,18.30
2019-05-05T01:47:14.826Z,18.30
2019-05-05T01:49:45.263Z,18.40
2019-05-05T01:52:15.037Z,18.30
2019-05-05T01:54:44.718Z,18.40
2019-05-05T01:57:14.803Z,18.40
2019-05-05T01:59:44.752Z,18.30
2019-05-05T02:02:14.577Z,18.30
2019-05-05T02:04:44.734Z,18.30
2019-05-05T02:07:14.676Z,18.30
2019-05-05T02:09:44.789Z,18.40
2019-05-05T02:12:15.872Z,18.40
2019-05-05T02:14:44.990Z,18.40
2019-05-05T02:17:14.502Z,18.40
2019-05-05T02:19:44.457Z,18.30
2019-05-05T02:22:14.637Z,18.40
2019-05-05T02:24:44.527Z,18.30
2019-05-05T02:27:14.703Z,18.40
2019-05-05T02:29:56.585Z,18.40
2019-05-05T02:32:45.457Z,18.40
2019-05-05T02:35:16.640Z,18.30
2019-05-05T02:37:46.165Z,18.30
2019-05-05T02:40:16.096Z,18.30
2019-05-05T02:42:45.762Z,18.40
2019-05-05T02:45:29.442Z,18.40
2019-05-05T02:48:26.813Z,18.30
2019-05-05T02:51:01.721Z,18.30
2019-05-05T02:53:40.819Z,18.30
2019-05-05T02:56:14.773Z,18.30
2019-05-05T02:58:44.389Z,18.30
2019-05-05T03:01:38.711Z,18.30
2019-05-05T03:04:07.837Z,18.30
2019-05-05T03:06:37.440Z,18.30
2019-05-05T03:09:06.886Z,18.30
2019-05-05T03:11:36.078Z,18.30
2019-05-05T03:14:06.305Z,18.30
2019-05-05T03:16:37.227Z,18.30
2019-05-05T03:19:07.044Z,18.30
2019-05-05T03:21:36.196Z,18.30
2019-05-05T03:24:05.623Z,18.30
2019-05-05T03:26:34.796Z,18.40
2019-05-05T03:29:06.177Z,18.40
2019-05-05T03:31:35.504Z,18.40
2019-05-05T03:34:06.036Z,18.40
2019-05-05T03:36:35.585Z,18.40
2019-05-05T03:39:06.401Z,18.40
2019-05-05T03:41:40.875Z,18.40
2019-05-05T03:44:28.641Z,18.40
2019-05-05T03:46:57.809Z,18.30
2019-05-05T03:49:27.177Z,18.40
2019-05-05T03:51:56.334Z,18.30
2019-05-05T03:54:25.452Z,18.30
2019-05-05T03:57:09.684Z,18.30
2019-05-05T03:59:40.348Z,18.40
2019-05-05T04:02:23.415Z,18.30
2019-05-05T04:04:54.822Z,18.30
2019-05-05T04:07:24.241Z,18.30
2019-05-05T04:09:54.260Z,18.30
2019-05-05T04:12:24.170Z,18.30
2019-05-05T04:14:54.633Z,18.30
2019-05-05T04:17:48.722Z,18.30
2019-05-05T04:20:33.752Z,18.30
2019-05-05T04:23:03.771Z,18.30
2019-05-05T04:25:34.789Z,18.30
2019-05-05T04:28:04.444Z,18.30
2019-05-05T04:30:33.995Z,18.30
2019-05-05T04:33:04.722Z,18.30
2019-05-05T04:35:34.160Z,18.30
2019-05-05T04:38:04.753Z,18.30
2019-05-05T04:40:34.590Z,18.30
2019-05-05T04:43:04.078Z,18.30
2019-05-05T04:45:34.752Z,18.30
2019-05-05T04:48:10.035Z,18.30
2019-05-05T04:51:16.578Z,18.30
2019-05-05T04:54:03.905Z,18.30
2019-05-05T04:56:34.327Z,18.30
2019-05-05T04:59:04.131Z,18.30
2019-05-05T05:01:33.923Z,18.30
2019-05-05T05:04:13.816Z,18.30
2019-05-05T05:06:46.708Z,18.30
2019-05-05T05:09:15.881Z,18.30
2019-05-05T05:11:45.033Z,18.30
2019-05-05T05:14:14.474Z,18.30
2019-05-05T05:16:43.971Z,18.30
2019-05-05T05:19:13.803Z,18.30
2019-05-05T05:21:43.834Z,18.30
2019-05-05T05:24:14.682Z,18.30
2019-05-05T05:26:44.245Z,18.30
2019-05-05T05:29:15.110Z,18.30
2019-05-05T05:31:44.808Z,18.30
2019-05-05T05:34:14.903Z,18.30
2019-05-05T05:36:44.519Z,18.30
2019-05-05T05:39:30.739Z,18.30
2019-05-05T05:41:59.933Z,18.30
2019-05-05T05:44:53.997Z,18.30
2019-05-05T05:47:45.287Z,18.30
2019-05-05T05:50:34.017Z,18.30
2019-05-05T05:53:04.749Z,18.30
2019-05-05T05:55:34.438Z,18.30
2019-05-05T05:58:04.850Z,18.30
2019-05-05T06:00:34.581Z,18.30
2019-05-05T06:03:04.155Z,18.40
2019-05-05T06:05:34.277Z,18.50
2019-05-05T06:08:04.720Z,18.80
2019-05-05T06:10:34.106Z,18.90
2019-05-05T06:13:04.117Z,18.80
2019-05-05T06:15:33.958Z,18.70
2019-05-05T06:18:04.640Z,18.70
2019-05-05T06:20:34.920Z,18.80
2019-05-05T06:23:04.535Z,18.80
2019-05-05T06:25:34.390Z,18.80
2019-05-05T06:28:04.384Z,18.80
2019-05-05T06:30:33.850Z,18.80
2019-05-05T06:33:04.917Z,18.80
2019-05-05T06:35:34.192Z,18.80
2019-05-05T06:38:04.702Z,18.80
2019-05-05T06:40:53.719Z,18.70
2019-05-05T06:43:34.830Z,18.70
2019-05-05T06:46:05.842Z,18.70
2019-05-05T06:48:35.017Z,18.60
2019-05-05T06:51:04.146Z,18.70
2019-05-05T06:53:34.173Z,18.60
2019-05-05T06:56:04.113Z,18.70
2019-05-05T06:58:34.735Z,18.60
2019-05-05T07:01:03.980Z,18.70
2019-05-05T07:03:33.721Z,18.60
2019-05-05T07:06:04.251Z,18.60
2019-05-05T07:08:34.657Z,18.50
2019-05-05T07:11:04.231Z,18.60
2019-05-05T07:13:34.045Z,18.50
2019-05-05T07:16:04.859Z,18.50
2019-05-05T07:18:34.363Z,18.50
2019-05-05T07:21:03.808Z,18.50
2019-05-05T07:23:34.129Z,18.50
2019-05-05T07:26:04.197Z,18.60
2019-05-05T07:28:34.298Z,18.60
2019-05-05T07:31:04.457Z,18.60
2019-05-05T07:33:34.614Z,18.60
2019-05-05T07:36:21.543Z,18.60
2019-05-05T07:38:50.629Z,18.50
2019-05-05T07:41:19.781Z,18.50
2019-05-05T07:43:48.811Z,18.50
2019-05-05T07:46:17.965Z,18.50
2019-05-05T07:48:47.127Z,18.50
2019-05-05T07:51:16.349Z,18.50
2019-05-05T07:53:45.826Z,18.60
2019-05-05T07:56:14.897Z,18.60
2019-05-05T07:58:44.153Z,18.60
2019-05-05T08:01:14.109Z,18.70
2019-05-05T08:03:44.543Z,18.70
2019-05-05T08:06:14.646Z,18.80
2019-05-05T08:08:44.467Z,18.80
2019-05-05T08:11:14.721Z,18.80
2019-05-05T08:13:44.473Z,18.80
2019-05-05T08:16:24.248Z,18.90
2019-05-05T08:19:17.562Z,18.90
2019-05-05T08:21:46.707Z,18.90
2019-05-05T08:24:24.391Z,18.90
2019-05-05T08:27:25.009Z,18.90
2019-05-05T08:29:58.386Z,18.80
2019-05-05T08:32:35.685Z,18.80
2019-05-05T08:35:05.825Z,18.80
2019-05-05T08:37:34.837Z,18.80
2019-05-05T08:40:04.372Z,18.80
2019-05-05T08:42:33.974Z,18.70
2019-05-05T08:45:04.569Z,18.70
2019-05-05T08:47:34.566Z,18.70
2019-05-05T08:50:04.194Z,18.70
2019-05-05T08:52:34.274Z,18.60
2019-05-05T08:55:04.664Z,18.70
2019-05-05T08:57:34.200Z,18.60
2019-05-05T09:00:04.921Z,18.70
2019-05-05T09:02:36.180Z,18.60
2019-05-05T09:05:05.112Z,18.60
2019-05-05T09:07:34.281Z,18.60
2019-05-05T09:10:09.718Z,18.70
2019-05-05T09:12:38.892Z,18.70
2019-05-05T09:15:08.297Z,18.70
2019-05-05T09:17:37.400Z,18.60
2019-05-05T09:20:06.550Z,18.60
2019-05-05T09:22:35.710Z,18.70
2019-05-05T09:25:13.534Z,18.70
2019-05-05T09:27:53.595Z,18.80
2019-05-05T09:30:35.863Z,18.80
2019-05-05T09:33:05.016Z,18.80
2019-05-05T09:35:34.460Z,18.80
2019-05-05T09:38:04.055Z,18.80
2019-05-05T09:40:38.061Z,18.80
2019-05-05T09:43:07.830Z,18.90
2019-05-05T09:45:37.188Z,18.90
2019-05-05T09:48:06.456Z,18.90
2019-05-05T09:50:35.641Z,18.90
2019-05-05T09:53:04.840Z,18.90
2019-05-05T09:55:34.091Z,18.80
2019-05-05T09:58:04.476Z,18.80
2019-05-05T10:00:37.895Z,18.90
2019-05-05T10:03:07.052Z,18.80
2019-05-05T10:05:36.221Z,18.80
2019-05-05T10:08:05.393Z,18.80
2019-05-05T10:10:34.564Z,18.70
2019-05-05T10:13:04.152Z,18.70
2019-05-05T10:15:33.745Z,18.70
2019-05-05T10:18:03.493Z,18.70
2019-05-05T10:20:34.343Z,18.70
2019-05-05T10:23:03.643Z,18.70
2019-05-05T10:25:46.370Z,18.70
2019-05-05T10:28:15.485Z,18.70
2019-05-05T10:30:44.644Z,18.70
2019-05-05T10:33:14.369Z,18.70
2019-05-05T10:35:43.888Z,18.70
2019-05-05T10:38:14.338Z,18.70
2019-05-05T10:40:44.724Z,18.70
2019-05-05T10:43:14.968Z,18.70
2019-05-05T10:45:44.502Z,18.70
2019-05-05T10:48:14.512Z,18.80
2019-05-05T10:50:47.293Z,18.80
2019-05-05T10:53:16.465Z,18.80
2019-05-05T10:55:47.063Z,18.80
2019-05-05T10:58:16.409Z,18.90
2019-05-05T11:00:51.674Z,18.90
2019-05-05T11:03:23.720Z,18.90
2019-05-05T11:05:53.478Z,18.90
2019-05-05T11:08:24.049Z,19.00
2019-05-05T11:10:53.267Z,19.00
2019-05-05T11:13:23.969Z,19.00
2019-05-05T11:15:54.714Z,19.00
2019-05-05T11:18:24.110Z,18.90
2019-05-05T11:20:54.894Z,18.90
2019-05-05T11:23:26.822Z,18.90
2019-05-05T11:25:55.955Z,18.90
2019-05-05T11:28:25.141Z,18.90
2019-05-05T11:30:54.272Z,18.90
2019-05-05T11:33:43.712Z,18.90
2019-05-05T11:36:46.030Z,18.80
2019-05-05T11:39:15.496Z,18.90
2019-05-05T11:41:44.691Z,18.80
2019-05-05T11:44:15.195Z,18.80
2019-05-05T11:46:46.736Z,18.80
2019-05-05T11:49:16.288Z,18.80
2019-05-05T11:51:45.679Z,18.80
2019-05-05T11:54:17.772Z,18.80
2019-05-05T11:56:49.303Z,18.80
2019-05-05T11:59:23.550Z,18.80
2019-05-05T12:01:54.700Z,18.80
2019-05-05T12:04:24.922Z,18.90
2019-05-05T12:07:04.062Z,18.90
2019-05-05T12:09:44.278Z,18.90
2019-05-05T12:12:14.264Z,18.90
2019-05-05T12:14:43.469Z,19.00
2019-05-05T12:17:13.924Z,19.00
2019-05-05T12:19:48.261Z,19.00
2019-05-05T12:22:19.501Z,19.00
2019-05-05T12:24:53.495Z,19.00
2019-05-05T12:27:33.862Z,19.00
2019-05-05T12:30:14.834Z,19.00
2019-05-05T12:32:45.620Z,19.00
2019-05-05T12:35:15.391Z,19.00
2019-05-05T12:37:44.632Z,19.00
2019-05-05T12:40:14.475Z,19.00
2019-05-05T12:42:48.571Z,18.90
2019-05-05T12:45:21.533Z,18.90
2019-05-05T12:48:09.143Z,18.90
2019-05-05T12:50:38.288Z,18.90
2019-05-05T12:53:09.686Z,18.90
2019-05-05T12:55:41.726Z,18.90
2019-05-05T12:58:13.906Z,18.90
2019-05-05T13:00:46.722Z,18.90
2019-05-05T13:03:18.823Z,18.90
2019-05-05T13:05:48.419Z,18.90
2019-05-05T13:08:17.577Z,18.90
2019-05-05T13:10:46.750Z,18.90
2019-05-05T13:13:16.256Z,18.80
2019-05-05T13:15:45.630Z,18.80
2019-05-05T13:18:14.841Z,18.90
2019-05-05T13:20:53.695Z,18.80
2019-05-05T13:23:45.104Z,18.80
2019-05-05T13:26:36.405Z,18.80
2019-05-05T13:29:05.802Z,18.90
2019-05-05T13:31:35.022Z,19.00
2019-05-05T13:34:04.474Z,19.00
2019-05-05T13:36:33.998Z,18.90
2019-05-05T13:39:03.896Z,19.00
2019-05-05T13:41:34.026Z,19.00
2019-05-05T13:44:05.224Z,19.00
2019-05-05T13:46:35.539Z,19.00
2019-05-05T13:49:24.630Z,19.00
2019-05-05T13:51:54.139Z,19.10
2019-05-05T13:54:24.267Z,19.10
2019-05-05T13:56:53.441Z,19.10
2019-05-05T13:59:22.560Z,19.10
2019-05-05T14:01:53.862Z,19.10
2019-05-05T14:04:22.464Z,19.10
2019-05-05T14:06:51.626Z,19.10
2019-05-05T14:09:20.689Z,19.10
2019-05-05T14:11:49.941Z,19.20
2019-05-05T14:14:19.070Z,19.10
2019-05-05T14:16:48.231Z,19.10
2019-05-05T14:19:17.308Z,19.10
2019-05-05T14:21:46.401Z,19.00
2019-05-05T14:24:40.801Z,19.00
2019-05-05T14:27:09.944Z,19.00
2019-05-05T14:29:44.687Z,19.00
2019-05-05T14:32:16.039Z,19.00
2019-05-05T14:34:49.314Z,18.90
2019-05-05T14:37:49.397Z,18.90
2019-05-05T14:40:18.479Z,18.90
2019-05-05T14:42:47.781Z,18.90
2019-05-05T14:45:17.054Z,18.90
2019-05-05T14:47:46.233Z,18.80
2019-05-05T14:50:15.396Z,18.80
2019-05-05T14:52:44.574Z,18.90
2019-05-05T14:55:14.122Z,18.90
2019-05-05T14:57:44.080Z,18.90
2019-05-05T15:00:15.120Z,18.90
2019-05-05T15:02:44.362Z,18.90
2019-05-05T15:05:31.271Z,18.90
2019-05-05T15:08:07.427Z,18.90
2019-05-05T15:10:59.975Z,19.00
2019-05-05T15:13:29.130Z,19.00
2019-05-05T15:15:58.559Z,19.10
2019-05-05T15:18:27.842Z,19.10
2019-05-05T15:20:56.941Z,19.10
2019-05-05T15:23:26.221Z,19.10
2019-05-05T15:25:55.506Z,19.20
2019-05-05T15:28:24.714Z,19.20
2019-05-05T15:30:54.492Z,19.20
2019-05-05T15:33:24.321Z,19.20
2019-05-05T15:35:54.007Z,19.20
2019-05-05T15:38:24.448Z,19.20
2019-05-05T15:40:54.740Z,19.20
2019-05-05T15:43:24.397Z,19.20
2019-05-05T15:45:54.131Z,19.20
2019-05-05T15:48:23.399Z,19.10
2019-05-05T15:50:54.487Z,19.10
2019-05-05T15:53:23.497Z,19.10
2019-05-05T15:55:53.984Z,19.10
2019-05-05T15:58:23.672Z,19.00
2019-05-05T16:00:53.857Z,19.00
2019-05-05T16:03:23.041Z,19.00
2019-05-05T16:05:54.127Z,19.00
2019-05-05T16:08:22.961Z,19.00
2019-05-05T16:10:54.428Z,19.00
2019-05-05T16:13:22.750Z,19.00
2019-05-05T16:16:01.726Z,19.00
2019-05-05T16:18:41.281Z,19.00
2019-05-05T16:21:18.276Z,19.00
2019-05-05T16:23:50.476Z,19.00
2019-05-05T16:26:19.674Z,18.90
2019-05-05T16:28:48.893Z,18.90
2019-05-05T16:31:18.106Z,18.90
2019-05-05T16:33:48.738Z,19.00
2019-05-05T16:36:18.029Z,19.00
2019-05-05T16:38:47.163Z,19.00
2019-05-05T16:41:16.332Z,19.00
2019-05-05T16:43:45.516Z,19.10
2019-05-05T16:46:17.106Z,19.00
2019-05-05T16:48:45.853Z,19.10
2019-05-05T16:51:16.980Z,19.10
2019-05-05T16:53:46.099Z,19.10
2019-05-05T16:56:15.346Z,19.20
2019-05-05T16:58:45.214Z,19.20
2019-05-05T17:01:15.944Z,19.30
2019-05-05T17:03:45.803Z,19.40
2019-05-05T17:06:15.149Z,19.40
2019-05-05T17:08:44.555Z,19.10
2019-05-05T17:11:14.965Z,18.80
2019-05-05T17:14:00.649Z,18.70
2019-05-05T17:16:46.201Z,18.70
2019-05-05T17:19:37.326Z,18.70
2019-05-05T17:22:15.783Z,18.60
2019-05-05T17:24:45.089Z,18.60
2019-05-05T17:27:14.254Z,18.60
2019-05-05T17:29:44.003Z,18.60
2019-05-05T17:32:13.914Z,18.60
2019-05-05T17:34:44.926Z,18.50
2019-05-05T17:37:14.128Z,18.50
2019-05-05T17:39:50.501Z,18.50
2019-05-05T17:42:39.990Z,18.50
2019-05-05T17:45:31.148Z,18.50
2019-05-05T17:48:14.212Z,18.50
2019-05-05T17:50:58.596Z,18.50
2019-05-05T17:53:34.458Z,18.50
2019-05-05T17:56:04.436Z,18.50
2019-05-05T17:58:34.106Z,18.50
2019-05-05T18:01:03.786Z,18.60
2019-05-05T18:03:34.084Z,18.60
2019-05-05T18:06:14.372Z,18.50
2019-05-05T18:08:56.519Z,18.60
2019-05-05T18:11:35.223Z,18.50
2019-05-05T18:14:09.657Z,18.50
2019-05-05T18:16:38.983Z,18.50
2019-05-05T18:19:08.314Z,18.60
2019-05-05T18:21:37.493Z,18.50
2019-05-05T18:24:06.668Z,18.60
2019-05-05T18:26:35.841Z,18.60
2019-05-05T18:29:04.944Z,18.60
2019-05-05T18:31:34.087Z,18.60
2019-05-05T18:34:03.943Z,18.60
2019-05-05T18:36:33.475Z,18.50
2019-05-05T18:39:04.341Z,18.60
2019-05-05T18:41:55.617Z,18.60
2019-05-05T18:44:29.747Z,18.50
2019-05-05T18:47:18.374Z,18.60
2019-05-05T18:49:47.625Z,18.60
2019-05-05T18:52:16.771Z,18.50
2019-05-05T18:54:46.022Z,18.50
2019-05-05T18:57:15.172Z,18.70
2019-05-05T18:59:44.933Z,18.80
2019-05-05T19:02:34.845Z,18.90
2019-05-05T19:05:23.588Z,18.90
2019-05-05T19:08:08.252Z,19.00
2019-05-05T19:10:37.499Z,19.10
2019-05-05T19:13:06.887Z,19.00
2019-05-05T19:15:36.045Z,19.00
2019-05-05T19:18:06.614Z,19.10
2019-05-05T19:20:47.139Z,19.10
2019-05-05T19:23:16.487Z,19.10
2019-05-05T19:25:45.617Z,19.10
2019-05-05T19:28:14.770Z,19.10
2019-05-05T19:30:44.156Z,19.10
2019-05-05T19:33:15.351Z,19.10
2019-05-05T19:35:47.186Z,19.10
2019-05-05T19:38:15.765Z,19.10
2019-05-05T19:40:45.360Z,19.10
2019-05-05T19:43:14.638Z,19.10
2019-05-05T19:45:44.901Z,19.10
2019-05-05T19:48:15.075Z,19.10
2019-05-05T19:50:59.547Z,19.10
2019-05-05T19:53:28.711Z,19.10
2019-05-05T19:56:01.542Z,19.10
2019-05-05T19:58:30.757Z,19.10
2019-05-05T20:01:04.631Z,19.10
2019-05-05T20:03:35.152Z,19.10
2019-05-05T20:06:04.993Z,19.20
2019-05-05T20:08:40.904Z,19.20
2019-05-05T20:11:05.395Z,19.20
2019-05-05T20:13:34.455Z,19.20
2019-05-05T20:16:39.822Z,19.30
2019-05-05T20:19:08.987Z,19.30
2019-05-05T20:21:38.783Z,19.30
2019-05-05T20:24:10.045Z,19.40
2019-05-05T20:26:39.146Z,19.40
2019-05-05T20:29:14.003Z,19.40
2019-05-05T20:31:39.677Z,19.40
2019-05-05T20:34:18.444Z,19.40
2019-05-05T20:37:15.647Z,19.50
2019-05-05T20:39:44.824Z,19.40
2019-05-05T20:42:14.906Z,19.40
2019-05-05T20:44:44.854Z,19.40
2019-05-05T20:47:14.014Z,19.40
2019-05-05T20:49:44.441Z,19.40
2019-05-05T20:52:14.143Z,19.40
2019-05-05T20:54:45.668Z,19.40
2019-05-05T20:57:15.027Z,19.30
2019-05-05T20:59:44.501Z,19.30
2019-05-05T21:02:14.213Z,19.30
2019-05-05T21:04:47.021Z,19.30
2019-05-05T21:07:16.858Z,19.30
2019-05-05T21:09:45.999Z,19.30
2019-05-05T21:12:15.200Z,19.30
2019-05-05T21:14:44.787Z,19.20
2019-05-05T21:17:14.207Z,19.20
2019-05-05T21:19:44.366Z,19.20
2019-05-05T21:22:31.142Z,19.20
2019-05-05T21:25:00.244Z,19.20
2019-05-05T21:27:30.788Z,19.20
2019-05-05T21:29:59.951Z,19.20
2019-05-05T21:32:29.140Z,19.20
2019-05-05T21:34:58.278Z,19.10
2019-05-05T21:37:27.469Z,19.10
2019-05-05T21:39:56.652Z,19.10
2019-05-05T21:42:25.689Z,19.10
2019-05-05T21:44:54.805Z,19.10
2019-05-05T21:47:24.115Z,19.10
2019-05-05T21:49:54.324Z,19.00
2019-05-05T21:52:35.384Z,19.00
2019-05-05T21:55:34.329Z,19.00
2019-05-05T21:58:28.598Z,19.00
2019-05-05T22:01:14.982Z,19.00
2019-05-05T22:03:44.418Z,19.00
2019-05-05T22:06:14.617Z,19.00
2019-05-05T22:08:44.097Z,19.00
2019-05-05T22:11:14.708Z,19.00
2019-05-05T22:13:44.379Z,19.10
2019-05-05T22:16:14.160Z,19.10
2019-05-05T22:18:44.657Z,19.10
2019-05-05T22:21:25.868Z,19.10
2019-05-05T22:24:15.610Z,19.10
2019-05-05T22:26:44.541Z,19.10
2019-05-05T22:29:16.794Z,19.20
2019-05-05T22:31:44.946Z,19.20
2019-05-05T22:34:14.638Z,19.20
2019-05-05T22:36:44.929Z,19.20
2019-05-05T22:39:16.824Z,19.20
2019-05-05T22:41:45.307Z,19.20
2019-05-05T22:44:14.350Z,19.20
2019-05-05T22:46:43.568Z,19.20
2019-05-05T22:49:14.718Z,19.20
2019-05-05T22:51:44.728Z,19.10
2019-05-05T22:54:33.731Z,19.10
2019-05-05T22:57:04.651Z,19.10
2019-05-05T22:59:34.065Z,19.10
2019-05-05T23:02:03.954Z,19.10
2019-05-05T23:04:43.833Z,19.30
2019-05-05T23:07:25.866Z,19.40
2019-05-05T23:09:55.013Z,19.30
2019-05-05T23:12:24.458Z,19.30
2019-05-05T23:14:54.526Z,19.30
2019-05-05T23:17:39.601Z,19.30
2019-05-05T23:20:27.705Z,19.30
2019-05-05T23:23:10.215Z,19.20
2019-05-05T23:25:45.587Z,19.20
2019-05-05T23:28:14.686Z,19.20
2019-05-05T23:30:44.795Z,19.20
2019-05-05T23:33:14.384Z,19.20
2019-05-05T23:35:43.783Z,19.20
2019-05-05T23:38:14.373Z,19.20
2019-05-05T23:40:43.630Z,19.10
2019-05-05T23:43:13.945Z,19.10
2019-05-05T23:45:44.844Z,19.10
2019-05-05T23:48:14.433Z,19.10
2019-05-05T23:50:44.565Z,19.10
2019-05-05T23:53:13.886Z,19.10
2019-05-05T23:55:44.092Z,19.10
2019-05-05T23:58:14.420Z,19.00
